AirNav   TITAN Aviation Fuels
 
 1428 users online  

80OK Bison Hill Airport
Norman, Oklahoma, USA

GOING TO NORMAN?


FAA INFORMATION EFFECTIVE 01 DECEMBER 2022

Location

FAA Identifier: 80OK
Lat/Long: 35-09-30.1750N 097-32-53.6250W
35-09.502917N 097-32.893750W
35.1583819,-97.5482292
(estimated)
Elevation: 1304 ft. / 397 m (estimated)
From city: 4 miles SW of NORMAN, OK
Time zone: UTC -6 (UTC -5 during Daylight Saving Time)
Zip code: 73093

Airport Operations

Airport use: Private use. Permission required prior to landing
Activation date: 12/2016
Control tower: no
ARTCC: FORT WORTH CENTER
FSS: WICHITA FLIGHT SERVICE STATION
Attendance: 
Segmented circle: no

Airport Communications

WX AWOS-3 at OUN (6 nm NE): 119.55 (405-325-7302)
WX ASOS at OKC (14 nm N): PHONE 405-686-4711

Nearby radio navigation aids

VOR radial/distance  VOR name  Freq  Var
IRWr159/12.4WILL ROGERS VORTAC114.1007E
PWAr160/23.0WILEY POST VOR/DME113.4008E

 
NDB name  Hdg/Dist  Freq  Var  ID
GALLY161/8.435005ERG .-. --.

Airport Services

Runway Information

Runway 17/35

Dimensions: 2112 x 50 ft. / 644 x 15 m
Surface: turf/gravel
RUNWAY 17  RUNWAY 35
Latitude: 35-09.676667N35-09.329167N
Longitude: 097-32.907333W097-32.880167W
Elevation: 1304.0 ft.1303.0 ft.
Traffic pattern: rightleft

Airport Ownership and Management from official FAA records

Ownership: Privately-owned
Owner: HIGH VALLEY RANCH
31500 HIGH VALLEY ROAD
NORMAN, OK 73072
Phone (405) 239-2250
Manager: HIGH VALLEY RANCH
31500 HIGH VALLEY ROAD
NORMAN, OK 73072
Phone 405-239-2250

Additional Remarks

FOR CD CTC FORT WORTH ARTCC AT 817-858-7584.

Instrument Procedures

There are no published instrument procedures at 80OK.

Some nearby airports with instrument procedures:

1K4 - David Jay Perry Airport (4 nm E)
KOUN - University of Oklahoma Westheimer Airport (6 nm NE)
KOKC - Will Rogers World Airport (14 nm N)
KTIK - Tinker Air Force Base (17 nm NE)
KHMY - Muldrow Army Heliport (17 nm SE)
 
Loc | Ops | Rwys | IFR | FBO | Links
Com | Nav | Svcs | Stats | Notes
Aerial photo
No photo
 
Airport distance calculator
Flying to Bison Hill Airport? Find the distance to fly.

From to 80OK

Sunrise and sunset
Times for 02-Dec-2022
 Local
(UTC-6)
 Zulu
(UTC)
Morning civil twilight06:5412:54
Sunrise07:2213:22
Sunset17:1723:17
Evening civil twilight17:4523:45

Current date and time
Zulu (UTC)  02-Dec-2022 16:39:54
Local (UTC-6)  02-Dec-2022 10:39:54
 
METAR
KOUN 
6nm NE 
021545Z 16017KT 2 1/2SM BR OVC003 09/09 A2995
KOKC 
14nm N 
021552Z 19018G23KT 2 1/2SM -DZ BR OVC003 11/11 A2994 RMK AO2 SFC VIS 3 SLP139 P0000 T01060106
KTIK 
18nm NE 
021555Z AUTO 19018G26KT 5SM BR OVC003 10/10 A2992 RMK AO2 PK WND 18026/44 SLP140 T00980096
TAF
KOUN 
6nm NE 
021120Z 0212/0312 17017G23KT 3SM BR OVC005 TEMPO 0212/0216 2SM -DZ BR OVC003 FM021600 20020G29KT 6SM BR OVC010 FM022000 20020G26KT P6SM SCT200 FM030500 35018G34KT P6SM FEW250 WS020/36055KT
KOKC 
14nm N 
021120Z 0212/0312 17016G24KT 2SM BR OVC003 TEMPO 0212/0216 2SM -DZ BR OVC003 FM021600 20021G30KT 6SM BR BKN010 FM021900 21019G29KT P6SM SCT200 FM030400 33014G35KT P6SM BKN250 WS020/33060KT
KTIK 
18nm NE 
021540Z 0215/0316 18015G25KT 9999 OVC003 QNH2992INS BECMG 0218/0219 20015G25KT 9999 OVC007 QNH2990INS BECMG 0222/0223 20015G25KT 9999 SCT010 BKN030 QNH2989INS BECMG 0304/0305 35015G25KT 9999 SCT050 QNH2989INS BECMG 0309/0310 01012G17KT 9999 SCT050 QNH2996INS TX15/0222Z TN05/0310Z
NOTAMs
Click for the latest NOTAMs
NOTAMs are issued by the DoD/FAA and will open in a separate window not controlled by AirNav.

 

 
 

Would you like to see your business listed on this page?

 If your business provides an interesting product or service to pilots, flight crews, aircraft, or users of the Bison Hill Airport, you should consider listing it here.  To start the listing process, click on the button below
 
Add a business
 

Other Pages about Bison Hill Airport

Update a link
 
Copyright © AirNav, LLC. All rights reserved. Privacy Policy  Contact